Aviation Digital Data Service (ADDS)

Output produced by METARs form (1348 UTC 27 September 2016)
found at http://aviationweather.gov/adds/metars/
 
KBHB 271123Z 2712/2812 20006KT P6SM VCSH BKN025 OVC050 
     TEMPO 2712/2714 -RA OVC015 
     FM271400 VRB03KT 5SM -RA BR OVC015 
     FM271800 04006KT 5SM BR VCSH OVC006 
     FM280100 05008KT 2SM -DZ BR OVC003